Massillon, Ohio
Current Conditions -  °F | °C
As of 9:51 PM on Wednesday 26 Nov 2014 (Local Time) from KCAK Reporting Station
Overcast Overcast  
Wind Chill: 34°   Ceiling: 3800
Heat Index: 34°   Visibility: 10mi
Dew Point: 24°   Wind: 3mph
Humidity: 67%   Direction: 300°WNW
Pressure: 30.01"   Gusts: NA
Location:  40.79°N, 81.52°W
Report Text: KCAK 270251Z 30003KT 10SM OVC038 01/M04 A3001 RMK AO2 SLP173 T00111044 58002
Loading
Personal Weather Stations






























Interactive Weather Map New forecast layout! Learn more

10-Day Weather Forecast

Advertisements
Track Severe Weather on mobile